Time;durP1;ratioP1;P1;durP2;ratioP2;P2;SDS_P1;SDS_P2;PMS_P1;PMS_P2;Temp;Humidity;BMP_temperature;BMP_pressure;BME280_temperature;BME280_humidity;BME280_pressure;Samples;Min_cycle;Max_cycle;Signal;HPM_P1;HPM_P2
2022/04/11 00:00:02;;;;;;;9.32;5.88;;;3.30;99.90;;;;;;5005117;28;20283;-76
2022/04/11 00:02:48;;;;;;;7.68;5.32;;;3.40;99.90;;;;;;5012282;28;20216;-76
2022/04/11 00:05:34;;;;;;;11.43;6.00;;;3.60;99.90;;;;;;5009650;28;20247;-76
2022/04/11 00:08:20;;;;;;;7.68;5.95;;;3.60;99.90;;;;;;5020883;28;20257;-76
2022/04/11 00:11:06;;;;;;;8.68;5.90;;;3.40;99.90;;;;;;5021511;28;20918;-77
2022/04/11 00:13:53;;;;;;;8.38;6.40;;;3.20;99.90;;;;;;5013970;28;20215;-76
2022/04/11 00:16:38;;;;;;;9.07;5.50;;;3.20;99.90;;;;;;5021283;28;20204;-76
2022/04/11 00:19:24;;;;;;;10.38;5.82;;;3.20;99.90;;;;;;5013320;28;20219;-76
2022/04/11 00:22:09;;;;;;;10.52;6.22;;;3.10;99.90;;;;;;5012115;28;20298;-77
2022/04/11 00:24:55;;;;;;;9.43;6.38;;;3.10;99.90;;;;;;5003608;28;20355;-76
2022/04/11 00:27:41;;;;;;;10.38;6.90;;;3.10;99.90;;;;;;5009867;28;20212;-77
2022/04/11 00:30:29;;;;;;;11.07;8.30;;;2.90;99.90;;;;;;5008545;28;20208;-76
2022/04/11 00:33:15;;;;;;;13.43;9.00;;;2.80;99.90;;;;;;5012512;28;20213;-75
2022/04/11 00:36:00;;;;;;;10.50;9.23;;;2.80;99.90;;;;;;5019800;28;20360;-77
2022/04/11 00:38:46;;;;;;;11.70;8.60;;;2.90;99.90;;;;;;5012632;28;20210;-77
2022/04/11 00:41:31;;;;;;;12.75;7.88;;;3.00;99.90;;;;;;5017002;28;20619;-75
2022/04/11 00:44:17;;;;;;;9.70;6.85;;;3.20;99.90;;;;;;5004214;28;20248;-77
2022/04/11 00:47:04;;;;;;;10.77;7.82;;;3.20;99.90;;;;;;5021158;28;20205;-77
2022/04/11 00:49:54;;;;;;;10.68;8.27;;;3.20;99.90;;;;;;5012501;28;20212;-77
2022/04/11 00:52:43;;;;;;;17.02;9.02;;;3.20;99.90;;;;;;5016058;28;20237;-76
2022/04/11 00:55:29;;;;;;;8.02;7.18;;;3.00;99.90;;;;;;5013713;28;20233;-77
2022/04/11 00:58:15;;;;;;;11.20;8.52;;;2.90;99.90;;;;;;5012251;28;20205;-77
2022/04/11 01:01:00;;;;;;;10.63;7.78;;;2.80;99.90;;;;;;5010786;28;20215;-77
2022/04/11 01:03:47;;;;;;;11.32;7.50;;;2.80;99.90;;;;;;4999099;28;20719;-76
2022/04/11 01:06:33;;;;;;;12.50;9.05;;;2.90;99.90;;;;;;5019849;28;20287;-77
2022/04/11 01:09:19;;;;;;;10.77;9.25;;;2.80;99.90;;;;;;5023054;28;20740;-76
2022/04/11 01:12:05;;;;;;;9.45;7.50;;;2.80;99.90;;;;;;5012435;28;20201;-76
2022/04/11 01:14:50;;;;;;;9.83;7.50;;;2.90;99.90;;;;;;5011092;28;20710;-77
2022/04/11 01:17:37;;;;;;;12.20;7.65;;;2.90;99.90;;;;;;5020948;28;20437;-75
2022/04/11 01:20:25;;;;;;;10.45;7.90;;;2.80;99.90;;;;;;5018141;28;20201;-76
2022/04/11 01:23:12;;;;;;;12.23;7.80;;;2.80;99.90;;;;;;5011985;28;20702;-75
2022/04/11 01:25:58;;;;;;;11.60;7.63;;;2.90;99.90;;;;;;5011536;28;20339;-77
2022/04/11 01:28:44;;;;;;;9.10;7.13;;;3.00;99.90;;;;;;5021708;28;20299;-76
2022/04/11 01:31:30;;;;;;;10.63;7.53;;;3.10;99.90;;;;;;5021859;28;20215;-76
2022/04/11 01:34:16;;;;;;;9.27;7.45;;;3.20;99.90;;;;;;5017176;28;20326;-76
2022/04/11 01:37:01;;;;;;;12.00;7.25;;;3.30;99.90;;;;;;5012419;28;20292;-77
2022/04/11 01:39:48;;;;;;;9.85;6.88;;;3.40;99.90;;;;;;5014832;28;20205;-76
2022/04/11 01:42:34;;;;;;;13.02;7.80;;;3.50;99.90;;;;;;5005909;28;20233;-77
2022/04/11 01:45:20;;;;;;;16.95;8.25;;;3.40;99.90;;;;;;5018812;28;20241;-76
2022/04/11 01:48:06;;;;;;;10.33;7.50;;;3.50;99.90;;;;;;5017043;28;20261;-76
2022/04/11 01:50:51;;;;;;;11.38;7.07;;;3.50;99.90;;;;;;5016549;28;20449;-77
2022/04/11 01:53:37;;;;;;;11.47;7.03;;;3.50;99.90;;;;;;5017371;28;20234;-75
2022/04/11 01:56:24;;;;;;;10.77;8.23;;;3.40;99.90;;;;;;5015749;28;20449;-76
2022/04/11 01:59:10;;;;;;;11.88;7.57;;;3.40;99.90;;;;;;5011206;28;20503;-76
2022/04/11 02:01:55;;;;;;;10.15;6.80;;;3.30;99.90;;;;;;5012475;28;20204;-75
2022/04/11 02:04:41;;;;;;;8.65;6.25;;;3.20;99.90;;;;;;5019085;28;20229;-77
2022/04/11 02:07:26;;;;;;;8.05;6.88;;;3.20;99.90;;;;;;5028141;28;20205;-75
2022/04/11 02:10:12;;;;;;;8.27;6.50;;;3.30;99.90;;;;;;5010764;28;20568;-76
2022/04/11 02:12:59;;;;;;;7.22;6.10;;;3.30;99.90;;;;;;5010262;28;20201;-76
2022/04/11 02:15:45;;;;;;;11.63;6.25;;;3.30;99.90;;;;;;5016940;28;20244;-77
2022/04/11 02:18:31;;;;;;;9.30;6.40;;;3.30;99.90;;;;;;5020131;28;20272;-77
2022/04/11 02:21:16;;;;;;;10.07;7.00;;;3.30;99.90;;;;;;5012280;28;20445;-76
2022/04/11 02:24:02;;;;;;;14.47;7.57;;;3.40;99.90;;;;;;5017172;28;20472;-77
2022/04/11 02:26:47;;;;;;;7.50;6.47;;;3.50;99.90;;;;;;5018506;28;20426;-77
2022/04/11 02:29:35;;;;;;;8.43;6.50;;;3.50;99.90;;;;;;5011413;28;20558;-76
2022/04/11 02:32:21;;;;;;;12.13;7.13;;;3.50;99.90;;;;;;5007423;28;20445;-76
2022/04/11 02:35:07;;;;;;;9.25;6.50;;;3.40;99.90;;;;;;5021903;28;20478;-76
2022/04/11 02:37:54;;;;;;;13.48;6.55;;;3.40;99.90;;;;;;5017464;28;20291;-76
2022/04/11 02:40:39;;;;;;;7.67;6.40;;;3.40;99.90;;;;;;5018657;28;20724;-76
2022/04/11 02:43:25;;;;;;;9.98;6.85;;;3.40;99.90;;;;;;5019721;28;20496;-76
2022/04/11 02:46:12;;;;;;;8.95;6.38;;;3.30;99.90;;;;;;5016584;28;20205;-77
2022/04/11 02:48:57;;;;;;;13.65;7.88;;;3.20;99.90;;;;;;5006908;28;20207;-77
2022/04/11 02:51:43;;;;;;;10.80;6.88;;;3.10;99.90;;;;;;5010413;28;20204;-76
2022/04/11 02:54:29;;;;;;;18.95;8.15;;;3.00;99.90;;;;;;5021562;28;20343;-76
2022/04/11 02:57:14;;;;;;;11.13;7.05;;;3.00;99.90;;;;;;5017419;28;20263;-76
2022/04/11 03:00:00;;;;;;;16.23;7.85;;;2.90;99.90;;;;;;5013252;28;20254;-76
2022/04/11 03:02:47;;;;;;;9.48;7.70;;;3.00;99.90;;;;;;5027657;28;20224;-77
2022/04/11 03:05:34;;;;;;;9.75;7.82;;;2.90;99.90;;;;;;5019839;28;20235;-77
2022/04/11 03:08:20;;;;;;;14.25;8.43;;;3.00;99.90;;;;;;5024532;28;20203;-76
2022/04/11 03:11:05;;;;;;;10.68;6.72;;;2.90;99.90;;;;;;5003237;28;20664;-77
2022/04/11 03:13:51;;;;;;;9.45;7.28;;;2.90;99.90;;;;;;5019311;28;20227;-77
2022/04/11 03:16:36;;;;;;;9.93;6.88;;;2.90;99.90;;;;;;5020122;28;20208;-76
2022/04/11 03:19:23;;;;;;;9.02;6.75;;;3.00;99.90;;;;;;5015249;28;20258;-76
2022/04/11 03:22:09;;;;;;;11.38;6.68;;;3.00;99.90;;;;;;5012548;28;20226;-76
2022/04/11 03:24:54;;;;;;;10.13;6.55;;;2.80;99.90;;;;;;5012867;28;20239;-76
2022/04/11 03:27:40;;;;;;;8.35;6.40;;;2.70;99.90;;;;;;5021591;28;20192;-76
2022/04/11 03:30:26;;;;;;;13.15;7.88;;;2.70;99.90;;;;;;5007073;28;20583;-76
2022/04/11 03:33:12;;;;;;;9.90;7.40;;;2.60;99.90;;;;;;5017788;28;20262;-76
2022/04/11 03:35:59;;;;;;;12.70;8.20;;;2.70;99.90;;;;;;5009203;28;20248;-76
2022/04/11 03:38:45;;;;;;;11.20;8.05;;;2.70;99.90;;;;;;5024991;28;20278;-76
2022/04/11 03:41:30;;;;;;;10.60;7.88;;;2.80;99.90;;;;;;5013629;28;20208;-77
2022/04/11 03:44:16;;;;;;;10.60;8.00;;;2.90;99.90;;;;;;5011673;28;20241;-77
2022/04/11 03:47:01;;;;;;;13.90;8.75;;;2.90;99.90;;;;;;5012055;28;20224;-76
2022/04/11 03:49:47;;;;;;;8.07;7.23;;;2.90;99.90;;;;;;5010412;28;20205;-76
2022/04/11 03:52:34;;;;;;;15.93;8.10;;;3.00;99.90;;;;;;5018829;28;20395;-75
2022/04/11 03:55:20;;;;;;;9.93;6.95;;;3.10;99.90;;;;;;5023504;28;20627;-77
2022/04/11 03:58:05;;;;;;;10.60;6.93;;;3.10;99.90;;;;;;5011802;28;20278;-76
2022/04/11 04:00:51;;;;;;;10.52;6.53;;;3.00;99.90;;;;;;5005411;28;20666;-76
2022/04/11 04:03:37;;;;;;;7.05;6.10;;;2.90;99.90;;;;;;5015039;28;20348;-77
2022/04/11 04:06:23;;;;;;;10.32;6.00;;;2.80;99.90;;;;;;5023673;28;20295;-77
2022/04/11 04:09:10;;;;;;;8.15;6.63;;;2.70;99.90;;;;;;5016408;28;20206;-76
2022/04/11 04:11:55;;;;;;;9.00;6.78;;;2.60;99.90;;;;;;5012287;28;20342;-77
2022/04/11 04:14:41;;;;;;;8.82;6.28;;;2.60;99.90;;;;;;5021074;28;20299;-77
2022/04/11 04:17:27;;;;;;;14.65;5.55;;;2.50;99.90;;;;;;5018629;28;20210;-74
2022/04/11 04:20:12;;;;;;;14.30;5.45;;;2.40;99.90;;;;;;5013240;28;20203;-76
2022/04/11 04:22:58;;;;;;;6.80;5.70;;;2.30;99.90;;;;;;5017369;28;20268;-76
2022/04/11 04:25:45;;;;;;;9.95;5.95;;;2.30;99.90;;;;;;5022464;28;20236;-76
2022/04/11 04:28:31;;;;;;;10.32;5.60;;;2.40;99.90;;;;;;5014176;28;20576;-76
2022/04/11 04:31:16;;;;;;;7.25;5.13;;;2.30;99.90;;;;;;5013926;28;20334;-74
2022/04/11 04:34:02;;;;;;;7.90;5.47;;;2.40;99.90;;;;;;5015606;28;20223;-77
2022/04/11 04:36:48;;;;;;;7.70;5.30;;;2.30;99.90;;;;;;5020117;28;20209;-77
2022/04/11 04:39:33;;;;;;;9.75;4.80;;;2.30;99.90;;;;;;5012160;28;20221;-77
2022/04/11 04:42:22;;;;;;;6.63;4.82;;;2.40;99.90;;;;;;5015849;28;20205;-76
2022/04/11 04:45:09;;;;;;;6.88;4.90;;;2.40;99.90;;;;;;5008545;28;20700;-77
2022/04/11 04:47:55;;;;;;;7.00;4.38;;;2.30;99.90;;;;;;5009756;28;20204;-75
2022/04/11 04:50:40;;;;;;;12.27;6.60;;;2.30;99.90;;;;;;5006101;28;20220;-76
2022/04/11 04:53:26;;;;;;;5.50;4.33;;;2.40;99.90;;;;;;5020584;28;20679;-77
2022/04/11 04:56:11;;;;;;;5.65;4.18;;;2.50;99.90;;;;;;5016245;28;20522;-76
2022/04/11 04:58:58;;;;;;;6.80;4.20;;;2.50;99.90;;;;;;5019084;28;20199;-76
2022/04/11 05:01:44;;;;;;;8.25;4.32;;;2.60;99.90;;;;;;5016236;28;20203;-77
2022/04/11 05:04:30;;;;;;;5.10;3.80;;;2.50;99.90;;;;;;5019700;28;20227;-75
2022/04/11 05:07:15;;;;;;;6.70;4.23;;;2.60;99.90;;;;;;5018026;28;20774;-75
2022/04/11 05:10:02;;;;;;;15.57;4.80;;;2.50;99.90;;;;;;5003029;28;20527;-76
2022/04/11 05:12:48;;;;;;;5.40;4.43;;;2.50;99.90;;;;;;5015624;28;20214;-75
2022/04/11 05:15:35;;;;;;;10.43;4.00;;;2.50;99.90;;;;;;5021423;28;20235;-75
2022/04/11 05:18:20;;;;;;;8.65;3.80;;;2.60;99.90;;;;;;5016631;28;20270;-76
2022/04/11 05:21:06;;;;;;;6.20;4.10;;;2.50;99.90;;;;;;5001382;28;20243;-76
2022/04/11 05:23:52;;;;;;;5.82;3.60;;;2.60;99.90;;;;;;5013151;28;20310;-76
2022/04/11 05:26:38;;;;;;;5.65;3.55;;;2.50;99.90;;;;;;5013611;28;20227;-76
2022/04/11 05:29:23;;;;;;;6.30;3.88;;;2.60;99.90;;;;;;5010721;28;20204;-77
2022/04/11 05:32:11;;;;;;;5.07;3.30;;;2.70;99.90;;;;;;5007946;28;20208;-77
2022/04/11 05:34:56;;;;;;;5.38;3.40;;;2.50;99.90;;;;;;5016714;28;20220;-76
2022/04/11 05:37:42;;;;;;;4.18;3.38;;;2.60;99.90;;;;;;5021327;28;20331;-77
2022/04/11 05:40:28;;;;;;;6.63;3.83;;;2.60;99.90;;;;;;5011377;28;20207;-77
2022/04/11 05:43:14;;;;;;;5.13;3.33;;;2.50;99.90;;;;;;5023060;28;20218;-77
2022/04/11 05:46:01;;;;;;;10.65;3.50;;;2.60;99.90;;;;;;5022431;28;20236;-76
2022/04/11 05:48:48;;;;;;;5.80;3.80;;;2.80;99.90;;;;;;5018515;28;20685;-75
2022/04/11 05:51:34;;;;;;;4.13;3.25;;;2.80;99.90;;;;;;5011742;28;20277;-77
2022/04/11 05:54:20;;;;;;;7.35;3.50;;;2.90;99.90;;;;;;5021029;28;20747;-76
2022/04/11 05:57:05;;;;;;;6.73;3.20;;;3.00;99.90;;;;;;5023494;28;20208;-77
2022/04/11 05:59:51;;;;;;;7.68;3.53;;;3.20;99.90;;;;;;5009278;28;20425;-76
2022/04/11 06:02:37;;;;;;;4.15;3.15;;;3.30;99.90;;;;;;5022558;28;20208;-75
2022/04/11 06:05:24;;;;;;;7.68;3.63;;;3.60;99.90;;;;;;5021728;28;20585;-76
2022/04/11 06:08:09;;;;;;;6.05;3.00;;;3.70;99.90;;;;;;5032195;28;20193;-77
2022/04/11 06:10:55;;;;;;;5.30;3.78;;;3.90;99.90;;;;;;5013377;28;20204;-77
2022/04/11 06:13:43;;;;;;;3.55;2.85;;;4.00;99.90;;;;;;5021696;28;20224;-77
2022/04/11 06:16:28;;;;;;;4.00;2.93;;;4.20;99.90;;;;;;5022943;28;20265;-77
2022/04/11 06:19:15;;;;;;;5.27;3.30;;;4.30;99.90;;;;;;5016623;28;20592;-76
2022/04/11 06:22:02;;;;;;;4.63;3.20;;;4.40;99.90;;;;;;5014903;28;20447;-77
2022/04/11 06:24:48;;;;;;;7.43;3.50;;;4.50;99.90;;;;;;5022274;28;20363;-75
2022/04/11 06:27:34;;;;;;;11.13;5.10;;;4.70;99.90;;;;;;5023030;28;20575;-77
2022/04/11 06:30:20;;;;;;;7.72;3.30;;;4.80;99.90;;;;;;5010635;28;20590;-76
2022/04/11 06:33:06;;;;;;;6.80;3.23;;;4.90;99.90;;;;;;5025046;28;20204;-75
2022/04/11 06:35:52;;;;;;;5.43;3.17;;;5.10;99.90;;;;;;5013408;28;20448;-76
2022/04/11 06:38:39;;;;;;;7.00;2.70;;;5.20;99.90;;;;;;5012857;28;21986;-74
2022/04/11 06:41:24;;;;;;;5.70;3.22;;;5.30;99.90;;;;;;5019477;28;20260;-76
2022/04/11 06:44:10;;;;;;;9.83;4.80;;;5.40;99.90;;;;;;5025460;28;20790;-76
2022/04/11 06:46:56;;;;;;;13.70;7.50;;;5.40;99.90;;;;;;5013460;28;20807;-77
2022/04/11 06:49:41;;;;;;;10.10;7.27;;;5.60;99.90;;;;;;5010026;28;20449;-77
2022/04/11 06:52:27;;;;;;;8.47;5.93;;;5.70;99.90;;;;;;5015900;28;20444;-76
2022/04/11 06:55:14;;;;;;;12.50;6.77;;;5.90;99.90;;;;;;5016948;28;20476;-76
2022/04/11 06:57:59;;;;;;;11.60;7.00;;;6.10;99.90;;;;;;5015873;28;20843;-77
2022/04/11 07:00:45;;;;;;;10.30;6.40;;;6.20;99.90;;;;;;5008635;28;20453;-77
2022/04/11 07:03:32;;;;;;;8.40;5.97;;;6.40;99.90;;;;;;5027152;28;20778;-77
2022/04/11 07:06:18;;;;;;;13.03;6.10;;;6.60;99.90;;;;;;5029454;28;20871;-77
2022/04/11 07:09:03;;;;;;;6.90;5.23;;;6.70;99.90;;;;;;5008402;28;20433;-77
2022/04/11 07:11:50;;;;;;;9.00;4.67;;;6.90;99.90;;;;;;5010336;28;20440;-77
2022/04/11 07:14:36;;;;;;;9.73;4.10;;;7.10;99.90;;;;;;5012783;28;20535;-76
2022/04/11 07:17:21;;;;;;;6.67;3.20;;;7.30;99.90;;;;;;5014501;28;20471;-76
2022/04/11 07:20:08;;;;;;;4.70;2.70;;;7.40;99.90;;;;;;5008320;28;20486;-76
2022/04/11 07:22:54;;;;;;;7.50;2.70;;;7.60;99.90;;;;;;5024548;28;20464;-75
2022/04/11 07:25:39;;;;;;;5.80;3.43;;;7.70;99.90;;;;;;5026448;28;20611;-75
2022/04/11 07:28:26;;;;;;;4.90;2.53;;;7.90;99.90;;;;;;5010557;28;20465;-75
2022/04/11 07:31:12;;;;;;;7.73;3.07;;;8.00;99.90;;;;;;5015032;28;20436;-75
2022/04/11 07:33:58;;;;;;;4.67;2.00;;;8.20;99.90;;;;;;4995024;28;20409;-76
2022/04/11 07:36:43;;;;;;;6.73;2.90;;;8.30;99.90;;;;;;4994691;28;20417;-76
2022/04/11 07:39:29;;;;;;;13.93;3.23;;;8.40;99.90;;;;;;5001482;28;20453;-76
2022/04/11 07:42:15;;;;;;;3.50;3.00;;;8.50;99.90;;;;;;5008809;28;20435;-75
2022/04/11 07:45:02;;;;;;;3.80;2.33;;;8.70;99.90;;;;;;5013505;28;20467;-74
2022/04/11 07:47:48;;;;;;;5.17;2.97;;;8.80;99.90;;;;;;5012379;28;20496;-75
2022/04/11 07:50:33;;;;;;;7.40;2.47;;;8.80;99.00;;;;;;5015548;28;20466;-74
2022/04/11 07:53:19;;;;;;;4.60;2.30;;;9.00;99.20;;;;;;5015857;28;20442;-74
2022/04/11 07:56:05;;;;;;;8.33;2.73;;;9.10;94.20;;;;;;5011035;28;20954;-77
2022/04/11 07:58:50;;;;;;;8.20;2.47;;;9.20;94.80;;;;;;5006924;28;20419;-75
2022/04/11 08:01:37;;;;;;;2.83;2.30;;;9.30;95.40;;;;;;5008906;28;20517;-75
2022/04/11 08:04:23;;;;;;;4.83;2.30;;;9.40;90.90;;;;;;5021371;28;20557;-74
2022/04/11 08:07:08;;;;;;;6.90;2.80;;;9.50;90.60;;;;;;5033397;28;20418;-76
2022/04/11 08:09:54;;;;;;;3.00;1.97;;;9.60;79.00;;;;;;5010986;28;20433;-77
2022/04/11 08:12:39;;;;;;;5.57;2.40;;;9.70;79.90;;;;;;5015568;28;20457;-76
2022/04/11 08:15:26;;;;;;;4.77;2.10;;;9.80;80.70;;;;;;5013304;28;20493;-77
2022/04/11 08:18:13;;;;;;;4.83;2.53;;;9.90;75.00;;;;;;5009352;28;20460;-76
2022/04/11 08:20:59;;;;;;;5.90;2.37;;;10.10;76.60;;;;;;5010614;28;20447;-77
2022/04/11 08:23:45;;;;;;;5.63;2.30;;;10.20;72.00;;;;;;5014063;28;20511;-77
2022/04/11 08:26:30;;;;;;;2.80;1.70;;;10.30;65.40;;;;;;5012910;28;20422;-77
2022/04/11 08:29:17;;;;;;;4.57;2.10;;;10.40;62.00;;;;;;5005155;28;20483;-77
2022/04/11 08:32:03;;;;;;;5.30;2.03;;;10.50;66.00;;;;;;5018894;28;20516;-77
2022/04/11 08:34:50;;;;;;;4.63;2.07;;;10.60;66.60;;;;;;5028724;28;20450;-76
2022/04/11 08:37:40;;;;;;;4.07;2.30;;;10.60;64.40;;;;;;5011431;28;20472;-75
2022/04/11 08:40:26;;;;;;;3.10;1.90;;;10.70;65.90;;;;;;5020019;28;20450;-76
2022/04/11 08:43:13;;;;;;;5.10;2.30;;;10.80;67.50;;;;;;5017343;28;20422;-76
2022/04/11 08:46:03;;;;;;;6.43;2.13;;;10.90;63.00;;;;;;5018052;28;20584;-77
2022/04/11 08:48:49;;;;;;;3.43;2.40;;;11.00;57.00;;;;;;5007031;28;20412;-76
2022/04/11 08:51:37;;;;;;;3.03;1.70;;;10.80;49.70;;;;;;5009969;28;20970;-76
2022/04/11 08:54:23;;;;;;;3.73;2.03;;;10.90;53.90;;;;;;5010300;28;20868;-77
2022/04/11 08:57:09;;;;;;;3.20;2.07;;;11.00;54.60;;;;;;5012532;28;20777;-77
2022/04/11 08:59:55;;;;;;;5.33;1.90;;;11.10;53.00;;;;;;5008337;28;20493;-76
2022/04/11 09:02:42;;;;;;;5.30;1.60;;;11.10;47.20;;;;;;5014119;28;20409;-77
2022/04/11 09:05:29;;;;;;;2.70;2.10;;;11.10;56.00;;;;;;5004107;28;20460;-77
2022/04/11 09:08:15;;;;;;;5.07;1.73;;;11.20;53.90;;;;;;5008486;28;20430;-76
2022/04/11 09:11:01;;;;;;;4.03;2.03;;;11.40;55.50;;;;;;5003828;28;20514;-76
2022/04/11 09:13:48;;;;;;;5.20;2.17;;;11.50;54.40;;;;;;5011007;28;20986;-77
2022/04/11 09:16:44;;;;;;;4.40;1.87;;;11.70;52.70;;;;;;5009831;28;20902;-77
2022/04/11 09:19:31;;;;;;;5.20;2.10;;;11.80;49.30;;;;;;5001507;28;20469;-77
2022/04/11 09:22:30;;;;;;;3.37;1.90;;;11.90;45.50;;;;;;5012050;28;20558;-77
2022/04/11 09:25:18;;;;;;;8.83;2.03;;;12.00;48.80;;;;;;4999081;28;20585;-77
2022/04/11 09:28:08;;;;;;;8.13;1.67;;;12.10;47.40;;;;;;5008228;28;20426;-77
2022/04/11 09:30:54;;;;;;;1.97;1.27;;;12.10;43.40;;;;;;5013540;28;20429;-76
2022/04/11 09:33:40;;;;;;;4.23;1.70;;;12.10;41.50;;;;;;5011686;28;20399;-77
2022/04/11 09:36:45;;;;;;;6.20;1.77;;;12.10;47.70;;;;;;5009741;28;20476;-77
2022/04/11 09:39:32;;;;;;;5.10;1.63;;;12.20;45.00;;;;;;4993827;28;20423;-77
2022/04/11 09:42:30;;;;;;;3.30;1.47;;;12.40;47.60;;;;;;4992785;28;21058;-77
2022/04/11 09:45:18;;;;;;;2.73;1.37;;;12.50;39.20;;;;;;4993624;28;20459;-76
2022/04/11 09:48:05;;;;;;;2.70;1.40;;;12.60;41.10;;;;;;4995395;28;20519;-77
2022/04/11 09:50:52;;;;;;;2.07;1.47;;;12.70;45.60;;;;;;5002648;28;20944;-77
2022/04/11 09:53:38;;;;;;;3.13;1.70;;;12.80;41.40;;;;;;5003014;28;20466;-77
2022/04/11 09:56:25;;;;;;;6.13;1.87;;;12.80;43.00;;;;;;4991806;28;20459;-76
2022/04/11 09:59:13;;;;;;;5.93;1.70;;;12.90;37.00;;;;;;5000900;28;20834;-77
2022/04/11 10:02:00;;;;;;;4.37;1.67;;;13.00;41.30;;;;;;5015238;28;20444;-77
2022/04/11 10:04:46;;;;;;;3.00;2.10;;;13.10;40.60;;;;;;5007288;28;20474;-77
2022/04/11 10:07:32;;;;;;;3.00;1.90;;;13.20;38.50;;;;;;5020029;28;20444;-77
2022/04/11 10:10:18;;;;;;;4.40;1.60;;;13.30;37.80;;;;;;4997682;28;20471;-77
2022/04/11 10:13:04;;;;;;;2.70;1.77;;;13.30;37.70;;;;;;5014531;28;20740;-76
2022/04/11 10:15:51;;;;;;;5.13;1.80;;;13.40;40.80;;;;;;5011009;28;20592;-77
2022/04/11 10:18:38;;;;;;;2.97;1.90;;;13.60;40.80;;;;;;5015407;28;20535;-76
2022/04/11 10:21:24;;;;;;;3.33;1.70;;;13.60;37.60;;;;;;5009962;28;20428;-77
2022/04/11 10:24:19;;;;;;;4.23;2.03;;;13.70;38.10;;;;;;5020659;28;20476;-77
2022/04/11 10:27:20;;;;;;;3.60;1.40;;;13.80;38.30;;;;;;5013610;28;20510;-77
2022/04/11 10:30:28;;;;;;;5.63;1.83;;;13.90;39.20;;;;;;5013170;28;20452;-77
2022/04/11 10:33:15;;;;;;;4.80;1.60;;;14.10;38.70;;;;;;5014930;28;20391;-77
2022/04/11 10:36:01;;;;;;;8.73;1.40;;;14.20;34.60;;;;;;5016368;28;20428;-73
2022/04/11 10:39:18;;;;;;;3.43;1.93;;;14.40;38.20;;;;;;5009059;28;20460;-73
2022/04/11 10:42:17;;;;;;;4.27;1.50;;;14.50;40.00;;;;;;5009313;28;20818;-74
2022/04/11 10:45:03;;;;;;;4.03;1.40;;;14.70;33.90;;;;;;5006063;28;20472;-74
2022/04/11 10:47:50;;;;;;;4.00;2.20;;;14.80;35.90;;;;;;5006942;28;20445;-73
2022/04/11 10:50:38;;;;;;;7.13;2.13;;;15.00;38.20;;;;;;5012814;28;20950;-73
2022/04/11 10:53:24;;;;;;;4.90;2.10;;;15.10;36.90;;;;;;5011734;28;20416;-74
2022/04/11 10:56:09;;;;;;;2.20;1.30;;;15.20;36.10;;;;;;5014723;28;20499;-73
2022/04/11 10:58:55;;;;;;;5.67;2.03;;;15.30;34.50;;;;;;5006602;28;20423;-74
2022/04/11 11:02:00;;;;;;;4.17;2.20;;;15.20;32.40;;;;;;5012074;28;20777;-77
2022/04/11 11:04:47;;;;;;;7.10;1.63;;;15.20;31.70;;;;;;5015432;28;20524;-78
2022/04/11 11:07:35;;;;;;;3.33;1.67;;;15.30;35.30;;;;;;5012767;28;20465;-77
2022/04/11 11:10:28;;;;;;;6.33;2.30;;;15.40;32.00;;;;;;5011891;28;20448;-78
2022/04/11 11:13:32;;;;;;;5.90;1.60;;;15.50;35.80;;;;;;5014973;28;20795;-77
2022/04/11 11:16:37;;;;;;;3.77;1.80;;;15.70;35.00;;;;;;5015170;28;20419;-76
2022/04/11 11:19:23;;;;;;;3.40;2.00;;;15.90;34.30;;;;;;5010644;28;20572;-77
2022/04/11 11:22:08;;;;;;;4.10;1.60;;;15.90;30.80;;;;;;5015096;28;20441;-78
2022/04/11 11:25:18;;;;;;;3.63;1.80;;;16.00;35.30;;;;;;5016355;28;20473;-78
2022/04/11 11:28:04;;;;;;;3.07;1.67;;;16.00;33.20;;;;;;5003165;28;20465;-77
2022/04/11 11:30:50;;;;;;;2.20;1.30;;;16.10;31.60;;;;;;5009956;28;20560;-76
2022/04/11 11:33:37;;;;;;;3.53;1.77;;;16.20;32.90;;;;;;5023462;28;20782;-76
2022/04/11 11:36:29;;;;;;;5.70;2.23;;;16.20;33.30;;;;;;5012750;28;20461;-76
2022/04/11 11:39:16;;;;;;;2.40;1.73;;;16.30;33.70;;;;;;5008784;28;20942;-77
2022/04/11 11:42:05;;;;;;;4.60;1.60;;;16.40;33.70;;;;;;5012635;28;20523;-77
2022/04/11 11:44:51;;;;;;;4.70;1.60;;;16.50;30.10;;;;;;5022064;28;20457;-77
2022/04/11 11:47:37;;;;;;;7.80;1.87;;;16.50;33.20;;;;;;5007899;28;20449;-77
2022/04/11 11:50:22;;;;;;;3.63;1.70;;;16.60;31.20;;;;;;5012433;28;20416;-77
2022/04/11 11:53:11;;;;;;;4.00;1.80;;;16.70;32.00;;;;;;5015834;28;20430;-76
2022/04/11 11:55:59;;;;;;;4.33;1.73;;;16.70;32.90;;;;;;5014271;28;20417;-76
2022/04/11 11:58:47;;;;;;;2.67;1.57;;;16.80;31.30;;;;;;5003530;28;20420;-78
2022/04/11 12:01:33;;;;;;;1.97;1.13;;;16.80;31.40;;;;;;5016805;28;20457;-77
2022/04/11 12:04:20;;;;;;;3.10;1.53;;;16.80;33.00;;;;;;5010245;28;20537;-77
2022/04/11 12:07:06;;;;;;;5.27;1.47;;;17.00;30.00;;;;;;5006835;28;20512;-78
2022/04/11 12:09:53;;;;;;;3.13;1.60;;;17.10;29.60;;;;;;5011209;28;20422;-78
2022/04/11 12:12:38;;;;;;;4.00;1.93;;;17.10;30.60;;;;;;5008173;28;20430;-79
2022/04/11 12:15:31;;;;;;;5.33;1.77;;;17.10;30.40;;;;;;5009160;28;20610;-79
2022/04/11 12:18:17;;;;;;;5.40;1.80;;;17.20;30.10;;;;;;5003184;28;20421;-79
2022/04/11 12:21:11;;;;;;;3.83;1.93;;;17.30;31.20;;;;;;5010055;28;20414;-78
2022/04/11 12:23:56;;;;;;;4.17;1.47;;;17.40;29.90;;;;;;5015498;28;20525;-79
2022/04/11 12:26:47;;;;;;;4.33;1.57;;;17.50;29.00;;;;;;5006682;28;20436;-78
2022/04/11 12:29:40;;;;;;;4.00;1.80;;;17.60;30.70;;;;;;5009299;28;20499;-79
2022/04/11 12:32:30;;;;;;;3.93;1.80;;;17.70;31.40;;;;;;4992590;28;20795;-79
2022/04/11 12:35:17;;;;;;;4.50;1.97;;;17.70;27.80;;;;;;5003701;28;20491;-78
2022/04/11 12:38:07;;;;;;;9.53;1.70;;;17.60;31.60;;;;;;4995077;28;20940;-78
2022/04/11 12:40:54;;;;;;;4.13;1.70;;;17.70;28.60;;;;;;4998263;28;20450;-79
2022/04/11 12:44:15;;;;;;;2.50;1.43;;;17.80;29.80;;;;;;5010661;28;20464;-79
2022/04/11 12:47:06;;;;;;;6.57;2.00;;;17.90;30.20;;;;;;5007805;28;20806;-78
2022/04/11 12:49:55;;;;;;;3.10;1.77;;;17.90;29.20;;;;;;5011995;28;20970;-79
2022/04/11 12:52:46;;;;;;;3.03;1.97;;;18.10;29.70;;;;;;5010859;28;20449;-78
2022/04/11 12:55:33;;;;;;;2.30;1.30;;;18.40;29.40;;;;;;5007250;28;20473;-79
2022/04/11 12:58:21;;;;;;;3.03;1.73;;;18.40;27.90;;;;;;5004309;28;20585;-78
2022/04/11 13:01:07;;;;;;;3.13;1.57;;;18.40;28.00;;;;;;5009032;28;20527;-78
2022/04/11 13:03:53;;;;;;;6.20;1.43;;;18.40;27.90;;;;;;5010793;28;20473;-79
2022/04/11 13:06:40;;;;;;;3.10;1.70;;;18.40;28.10;;;;;;5005531;28;20835;-77
2022/04/11 13:09:26;;;;;;;3.10;1.60;;;18.60;27.70;;;;;;5005569;28;20419;-78
2022/04/11 13:12:13;;;;;;;6.53;1.83;;;18.60;28.80;;;;;;5005674;28;20500;-78
2022/04/11 13:14:59;;;;;;;5.27;1.57;;;18.70;27.30;;;;;;5009846;28;20596;-78
2022/04/11 13:20:49;;;;;;;3.90;1.80;;;18.90;27.80;;;;;;5009521;28;20433;-78
2022/04/11 13:23:37;;;;;;;5.23;1.50;;;19.00;25.80;;;;;;5009410;28;20547;-79
2022/04/11 13:26:22;;;;;;;2.90;1.67;;;19.00;27.20;;;;;;5004066;28;20517;-79
2022/04/11 13:29:08;;;;;;;3.90;1.70;;;19.20;27.00;;;;;;5009894;28;20949;-79
2022/04/11 13:31:53;;;;;;;3.60;1.40;;;19.40;26.40;;;;;;5009881;28;20411;-77
2022/04/11 13:34:39;;;;;;;3.30;1.43;;;19.40;27.50;;;;;;5010999;28;21178;-77
2022/04/11 13:37:25;;;;;;;3.17;1.33;;;19.60;26.30;;;;;;5005674;28;20512;-79
2022/04/11 13:40:12;;;;;;;3.03;1.60;;;19.60;26.10;;;;;;5008395;28;20419;-78
2022/04/11 13:42:59;;;;;;;3.13;1.40;;;19.60;24.30;;;;;;5011049;28;20473;-77
2022/04/11 13:45:44;;;;;;;5.93;2.00;;;19.60;25.40;;;;;;5005912;28;20517;-77
2022/04/11 13:48:30;;;;;;;2.80;1.67;;;19.80;25.70;;;;;;5010709;28;20453;-77
2022/04/11 13:51:16;;;;;;;8.50;1.77;;;19.70;26.20;;;;;;5013300;28;20512;-77
2022/04/11 13:54:01;;;;;;;2.87;1.77;;;19.80;24.50;;;;;;5009689;28;20447;-77
2022/04/11 13:56:48;;;;;;;4.00;1.37;;;19.90;25.30;;;;;;5004376;28;20504;-77
2022/04/11 13:59:35;;;;;;;3.80;1.60;;;19.90;24.30;;;;;;5005515;28;20463;-77
2022/04/11 14:02:20;;;;;;;4.93;1.83;;;19.90;24.90;;;;;;5011276;28;20433;-77
2022/04/11 14:05:08;;;;;;;3.50;1.60;;;20.00;25.40;;;;;;5019964;28;20477;-77
2022/04/11 14:07:53;;;;;;;2.80;1.33;;;20.20;24.30;;;;;;5007002;28;20437;-77
2022/04/11 14:10:39;;;;;;;3.20;1.70;;;20.40;26.40;;;;;;5009605;28;21006;-77
2022/04/11 14:13:26;;;;;;;4.10;1.80;;;20.40;25.30;;;;;;5014131;28;20445;-77
2022/04/11 14:16:12;;;;;;;3.53;1.30;;;20.40;25.40;;;;;;5002900;28;20602;-77
2022/04/11 14:18:58;;;;;;;4.10;1.60;;;20.50;24.00;;;;;;5011802;28;21001;-77
2022/04/11 14:21:43;;;;;;;4.30;2.23;;;20.50;25.60;;;;;;5014217;28;20571;-77
2022/04/11 14:24:29;;;;;;;5.07;1.97;;;20.40;23.50;;;;;;5011586;28;20461;-77
2022/04/11 14:27:15;;;;;;;5.33;2.00;;;20.30;25.20;;;;;;5008379;28;20473;-77
2022/04/11 14:30:02;;;;;;;6.03;1.70;;;20.20;24.80;;;;;;5004026;28;20448;-77
2022/04/11 14:32:48;;;;;;;7.73;1.90;;;20.30;25.20;;;;;;5013072;28;20591;-77
2022/04/11 14:35:33;;;;;;;4.63;1.87;;;20.30;24.40;;;;;;5007642;28;20475;-77